sensor_id;sensor_type;location;lat;lon;timestamp;pressure;altitude;pressure_sealevel;temperature;humidity
22047;BME280;11187;49.412;20.956;2024-01-11T00:02:28;96042.22;;;-10.75;100.00
22047;BME280;11187;49.412;20.956;2024-01-11T00:05:08;96042.22;;;-10.75;100.00
22047;BME280;11187;49.412;20.956;2024-01-11T00:07:49;96037.91;;;-10.78;100.00
22047;BME280;11187;49.412;20.956;2024-01-11T00:10:29;96034.31;;;-10.81;100.00
22047;BME280;11187;49.412;20.956;2024-01-11T00:13:09;96030.63;;;-10.86;100.00
22047;BME280;11187;49.412;20.956;2024-01-11T00:15:49;96032.00;;;-10.90;100.00
22047;BME280;11187;49.412;20.956;2024-01-11T00:18:29;96026.31;;;-10.89;100.00
22047;BME280;11187;49.412;20.956;2024-01-11T00:21:09;96024.56;;;-10.90;100.00
22047;BME280;11187;49.412;20.956;2024-01-11T00:23:49;96024.72;;;-10.88;100.00
22047;BME280;11187;49.412;20.956;2024-01-11T00:26:36;96025.34;;;-10.91;100.00
22047;BME280;11187;49.412;20.956;2024-01-11T00:29:10;96018.41;;;-10.95;100.00
22047;BME280;11187;49.412;20.956;2024-01-11T00:31:57;96016.72;;;-10.96;100.00
22047;BME280;11187;49.412;20.956;2024-01-11T00:34:38;96009.16;;;-10.98;100.00
22047;BME280;11187;49.412;20.956;2024-01-11T00:37:18;96009.38;;;-10.95;100.00
22047;BME280;11187;49.412;20.956;2024-01-11T00:40:05;96008.94;;;-11.01;100.00
22047;BME280;11187;49.412;20.956;2024-01-11T00:42:59;96003.00;;;-11.03;100.00
22047;BME280;11187;49.412;20.956;2024-01-11T00:45:53;96005.00;;;-11.09;100.00
22047;BME280;11187;49.412;20.956;2024-01-11T00:48:26;95993.03;;;-11.15;100.00
22047;BME280;11187;49.412;20.956;2024-01-11T00:51:13;95998.50;;;-11.19;100.00
22047;BME280;11187;49.412;20.956;2024-01-11T00:53:46;95994.81;;;-11.24;100.00
22047;BME280;11187;49.412;20.956;2024-01-11T00:56:33;95988.25;;;-11.23;100.00
22047;BME280;11187;49.412;20.956;2024-01-11T00:59:06;95987.03;;;-11.28;100.00
22047;BME280;11187;49.412;20.956;2024-01-11T01:01:53;95986.69;;;-11.33;100.00
22047;BME280;11187;49.412;20.956;2024-01-11T01:04:26;95979.00;;;-11.36;100.00
22047;BME280;11187;49.412;20.956;2024-01-11T01:07:13;95982.47;;;-11.34;100.00
22047;BME280;11187;49.412;20.956;2024-01-11T01:09:46;95975.63;;;-11.26;100.00
22047;BME280;11187;49.412;20.956;2024-01-11T01:12:33;95973.41;;;-11.23;100.00
22047;BME280;11187;49.412;20.956;2024-01-11T01:15:07;95976.50;;;-11.26;100.00
22047;BME280;11187;49.412;20.956;2024-01-11T01:17:54;95979.25;;;-11.33;100.00
22047;BME280;11187;49.412;20.956;2024-01-11T01:20:34;95971.59;;;-11.36;100.00
22047;BME280;11187;49.412;20.956;2024-01-11T01:23:21;95969.88;;;-11.37;100.00
22047;BME280;11187;49.412;20.956;2024-01-11T01:26:01;95960.72;;;-11.38;100.00
22047;BME280;11187;49.412;20.956;2024-01-11T01:28:41;95958.72;;;-11.32;100.00
22047;BME280;11187;49.412;20.956;2024-01-11T01:31:21;95960.34;;;-11.32;100.00
22047;BME280;11187;49.412;20.956;2024-01-11T01:34:01;95961.47;;;-11.39;100.00
22047;BME280;11187;49.412;20.956;2024-01-11T01:36:41;95962.84;;;-11.43;100.00
22047;BME280;11187;49.412;20.956;2024-01-11T01:39:21;95951.97;;;-11.45;100.00
22047;BME280;11187;49.412;20.956;2024-01-11T01:42:01;95941.97;;;-11.46;100.00
22047;BME280;11187;49.412;20.956;2024-01-11T01:44:48;95946.78;;;-11.48;100.00
22047;BME280;11187;49.412;20.956;2024-01-11T01:47:21;95942.06;;;-11.45;100.00
22047;BME280;11187;49.412;20.956;2024-01-11T01:50:10;95943.53;;;-11.37;100.00
22047;BME280;11187;49.412;20.956;2024-01-11T01:52:43;95950.56;;;-11.31;100.00
22047;BME280;11187;49.412;20.956;2024-01-11T01:55:38;95950.81;;;-11.28;100.00
22047;BME280;11187;49.412;20.956;2024-01-11T01:58:33;95952.81;;;-11.34;100.00
22047;BME280;11187;49.412;20.956;2024-01-11T02:01:28;95953.44;;;-11.37;100.00
22047;BME280;11187;49.412;20.956;2024-01-11T02:04:22;95947.22;;;-11.31;100.00
22047;BME280;11187;49.412;20.956;2024-01-11T02:06:55;95947.34;;;-11.30;100.00
22047;BME280;11187;49.412;20.956;2024-01-11T02:09:44;95947.13;;;-11.33;100.00
22047;BME280;11187;49.412;20.956;2024-01-11T02:12:25;95936.63;;;-11.41;100.00
22047;BME280;11187;49.412;20.956;2024-01-11T02:15:05;95935.19;;;-11.49;100.00
22047;BME280;11187;49.412;20.956;2024-01-11T02:17:46;95929.88;;;-11.53;100.00
22047;BME280;11187;49.412;20.956;2024-01-11T02:20:19;95925.69;;;-11.54;100.00
22047;BME280;11187;49.412;20.956;2024-01-11T02:23:08;95937.69;;;-11.59;100.00
22047;BME280;11187;49.412;20.956;2024-01-11T02:25:45;95929.91;;;-11.64;100.00
22047;BME280;11187;49.412;20.956;2024-01-11T02:28:32;95933.13;;;-11.65;100.00
22047;BME280;11187;49.412;20.956;2024-01-11T02:31:05;95924.84;;;-11.65;100.00
22047;BME280;11187;49.412;20.956;2024-01-11T02:33:52;95924.84;;;-11.65;100.00
22047;BME280;11187;49.412;20.956;2024-01-11T02:36:33;95917.34;;;-11.67;100.00
22047;BME280;11187;49.412;20.956;2024-01-11T02:39:16;95921.03;;;-11.62;100.00
22047;BME280;11187;49.412;20.956;2024-01-11T02:41:56;95922.50;;;-11.64;100.00
22047;BME280;11187;49.412;20.956;2024-01-11T02:44:36;95921.28;;;-11.69;100.00
22047;BME280;11187;49.412;20.956;2024-01-11T02:47:16;95916.09;;;-11.72;100.00
22047;BME280;11187;49.412;20.956;2024-01-11T02:50:03;95924.13;;;-11.74;100.00
22047;BME280;11187;49.412;20.956;2024-01-11T02:52:43;95912.28;;;-11.79;100.00
22047;BME280;11187;49.412;20.956;2024-01-11T02:55:23;95911.16;;;-11.72;100.00
22047;BME280;11187;49.412;20.956;2024-01-11T02:58:03;95907.56;;;-11.65;100.00
22047;BME280;11187;49.412;20.956;2024-01-11T03:00:43;95907.69;;;-11.64;100.00
22047;BME280;11187;49.412;20.956;2024-01-11T03:03:23;95904.09;;;-11.67;100.00
22047;BME280;11187;49.412;20.956;2024-01-11T03:06:03;95903.88;;;-11.70;100.00
22047;BME280;11187;49.412;20.956;2024-01-11T03:08:44;95909.44;;;-11.73;100.00
22047;BME280;11187;49.412;20.956;2024-01-11T03:11:24;95904.28;;;-11.76;100.00
22047;BME280;11187;49.412;20.956;2024-01-11T03:14:04;95898.34;;;-11.78;100.00
22047;BME280;11187;49.412;20.956;2024-01-11T03:16:44;95899.31;;;-11.76;100.00
22047;BME280;11187;49.412;20.956;2024-01-11T03:19:24;95901.91;;;-11.74;100.00
22047;BME280;11187;49.412;20.956;2024-01-11T03:22:04;95898.44;;;-11.77;100.00
22047;BME280;11187;49.412;20.956;2024-01-11T03:24:46;95880.94;;;-11.80;100.00
22047;BME280;11187;49.412;20.956;2024-01-11T03:27:26;95876.84;;;-11.79;100.00
22047;BME280;11187;49.412;20.956;2024-01-11T03:30:07;95885.00;;;-11.80;100.00
22047;BME280;11187;49.412;20.956;2024-01-11T03:32:48;95888.09;;;-11.83;100.00
22047;BME280;11187;49.412;20.956;2024-01-11T03:35:28;95881.44;;;-11.84;100.00
22047;BME280;11187;49.412;20.956;2024-01-11T03:38:21;95886.38;;;-11.84;100.00
22047;BME280;11187;49.412;20.956;2024-01-11T03:41:17;95878.22;;;-11.83;100.00
22047;BME280;11187;49.412;20.956;2024-01-11T03:44:11;95885.09;;;-11.79;100.00
22047;BME280;11187;49.412;20.956;2024-01-11T03:47:05;95885.00;;;-11.80;100.00
22047;BME280;11187;49.412;20.956;2024-01-11T03:49:59;95887.34;;;-11.82;100.00
22047;BME280;11187;49.412;20.956;2024-01-11T03:52:53;95883.91;;;-11.84;100.00
22047;BME280;11187;49.412;20.956;2024-01-11T03:55:26;95879.72;;;-11.85;100.00
22047;BME280;11187;49.412;20.956;2024-01-11T03:58:13;95875.00;;;-11.82;100.00
22047;BME280;11187;49.412;20.956;2024-01-11T04:00:46;95876.22;;;-11.77;100.00
22047;BME280;11187;49.412;20.956;2024-01-11T04:03:41;95874.09;;;-11.72;100.00
22047;BME280;11187;49.412;20.956;2024-01-11T04:06:36;95870.16;;;-11.70;100.00
22047;BME280;11187;49.412;20.956;2024-01-11T04:09:30;95872.63;;;-11.70;100.00
22047;BME280;11187;49.412;20.956;2024-01-11T04:12:24;95867.22;;;-11.76;100.00
22047;BME280;11187;49.412;20.956;2024-01-11T04:14:57;95855.25;;;-11.82;100.00
22047;BME280;11187;49.412;20.956;2024-01-11T04:17:44;95856.88;;;-11.82;100.00
22047;BME280;11187;49.412;20.956;2024-01-11T04:20:18;95849.06;;;-11.77;100.00
22047;BME280;11187;49.412;20.956;2024-01-11T04:23:12;95851.03;;;-11.72;100.00
22047;BME280;11187;49.412;20.956;2024-01-11T04:26:06;95846.72;;;-11.75;100.00
22047;BME280;11187;49.412;20.956;2024-01-11T04:28:39;95853.25;;;-11.75;100.00
22047;BME280;11187;49.412;20.956;2024-01-11T04:31:27;95860.53;;;-11.77;100.00
22047;BME280;11187;49.412;20.956;2024-01-11T04:34:00;95856.00;;;-11.83;100.00
22047;BME280;11187;49.412;20.956;2024-01-11T04:36:47;95858.88;;;-11.88;100.00
22047;BME280;11187;49.412;20.956;2024-01-11T04:39:20;95857.78;;;-11.92;100.00
22047;BME280;11187;49.412;20.956;2024-01-11T04:42:14;95852.72;;;-11.93;100.00
22047;BME280;11187;49.412;20.956;2024-01-11T04:45:08;95851.13;;;-11.93;100.00
22047;BME280;11187;49.412;20.956;2024-01-11T04:47:41;95851.13;;;-11.93;100.00
22047;BME280;11187;49.412;20.956;2024-01-11T04:50:28;95849.41;;;-11.94;100.00
22047;BME280;11187;49.412;20.956;2024-01-11T04:53:01;95848.78;;;-11.91;100.00
22047;BME280;11187;49.412;20.956;2024-01-11T04:55:48;95842.00;;;-11.94;100.00
22047;BME280;11187;49.412;20.956;2024-01-11T04:58:21;95845.00;;;-11.86;100.00
22047;BME280;11187;49.412;20.956;2024-01-11T05:01:12;95837.75;;;-11.85;100.00
22047;BME280;11187;49.412;20.956;2024-01-11T05:03:47;95841.69;;;-11.87;100.00
22047;BME280;11187;49.412;20.956;2024-01-11T05:06:34;95838.13;;;-11.90;100.00
22047;BME280;11187;49.412;20.956;2024-01-11T05:09:08;95829.75;;;-11.92;100.00
22047;BME280;11187;49.412;20.956;2024-01-11T05:11:54;95830.50;;;-11.93;100.00
22047;BME280;11187;49.412;20.956;2024-01-11T05:14:27;95830.00;;;-11.89;100.00
22047;BME280;11187;49.412;20.956;2024-01-11T05:17:14;95845.81;;;-11.87;100.00
22047;BME280;11187;49.412;20.956;2024-01-11T05:19:47;95835.44;;;-11.93;100.00
22047;BME280;11187;49.412;20.956;2024-01-11T05:22:34;95826.69;;;-12.00;100.00
22047;BME280;11187;49.412;20.956;2024-01-11T05:25:07;95828.94;;;-12.03;100.00
22047;BME280;11187;49.412;20.956;2024-01-11T05:27:54;95830.16;;;-12.08;100.00
22047;BME280;11187;49.412;20.956;2024-01-11T05:30:27;95825.13;;;-12.10;100.00
22047;BME280;11187;49.412;20.956;2024-01-11T05:33:21;95818.34;;;-12.12;100.00
22047;BME280;11187;49.412;20.956;2024-01-11T05:35:54;95809.34;;;-12.12;100.00
22047;BME280;11187;49.412;20.956;2024-01-11T05:38:48;95808.47;;;-12.12;100.00
22047;BME280;11187;49.412;20.956;2024-01-11T05:41:45;95799.19;;;-12.15;100.00
22047;BME280;11187;49.412;20.956;2024-01-11T05:44:39;95795.66;;;-12.18;100.00
22047;BME280;11187;49.412;20.956;2024-01-11T05:47:12;95793.41;;;-12.15;100.00
22047;BME280;11187;49.412;20.956;2024-01-11T05:49:59;95791.94;;;-12.13;100.00
22047;BME280;11187;49.412;20.956;2024-01-11T05:52:32;95783.53;;;-12.15;100.00
22047;BME280;11187;49.412;20.956;2024-01-11T05:55:26;95784.78;;;-12.21;100.00
22047;BME280;11187;49.412;20.956;2024-01-11T05:58:00;95776.53;;;-12.21;100.00
22047;BME280;11187;49.412;20.956;2024-01-11T06:00:47;95771.97;;;-12.16;100.00
22047;BME280;11187;49.412;20.956;2024-01-11T06:03:20;95771.47;;;-12.12;100.00
22047;BME280;11187;49.412;20.956;2024-01-11T06:06:15;95768.72;;;-12.05;100.00
22047;BME280;11187;49.412;20.956;2024-01-11T06:09:09;95762.28;;;-12.03;100.00
22047;BME280;11187;49.412;20.956;2024-01-11T06:11:43;95759.06;;;-12.02;100.00
22047;BME280;11187;49.412;20.956;2024-01-11T06:14:30;95759.91;;;-12.02;100.00
22047;BME280;11187;49.412;20.956;2024-01-11T06:17:04;95752.50;;;-12.02;99.98
22047;BME280;11187;49.412;20.956;2024-01-11T06:19:51;95746.72;;;-12.02;100.00
22047;BME280;11187;49.412;20.956;2024-01-11T06:22:24;95745.00;;;-12.03;99.99
22047;BME280;11187;49.412;20.956;2024-01-11T06:25:11;95748.34;;;-12.03;100.00
22047;BME280;11187;49.412;20.956;2024-01-11T06:27:46;95752.06;;;-12.08;99.63
22047;BME280;11187;49.412;20.956;2024-01-11T06:30:40;95754.28;;;-12.11;99.78
22047;BME280;11187;49.412;20.956;2024-01-11T06:33:34;95749.00;;;-12.15;99.54
22047;BME280;11187;49.412;20.956;2024-01-11T06:36:30;95743.69;;;-12.20;99.40
22047;BME280;11187;49.412;20.956;2024-01-11T06:39:24;95734.09;;;-12.27;99.50
22047;BME280;11187;49.412;20.956;2024-01-11T06:41:57;95732.13;;;-12.21;100.00
22047;BME280;11187;49.412;20.956;2024-01-11T06:44:45;95723.47;;;-12.16;100.00
22047;BME280;11187;49.412;20.956;2024-01-11T06:47:18;95720.47;;;-12.12;100.00
22047;BME280;11187;49.412;20.956;2024-01-11T06:50:12;95729.84;;;-12.08;100.00
22047;BME280;11187;49.412;20.956;2024-01-11T06:52:45;95727.25;;;-12.09;99.91
22047;BME280;11187;49.412;20.956;2024-01-11T06:55:39;95725.41;;;-12.12;100.00
22047;BME280;11187;49.412;20.956;2024-01-11T06:58:34;95724.66;;;-12.11;100.00
22047;BME280;11187;49.412;20.956;2024-01-11T07:01:28;95732.41;;;-12.06;100.00
22047;BME280;11187;49.412;20.956;2024-01-11T07:04:01;95730.81;;;-12.06;100.00
22047;BME280;11187;49.412;20.956;2024-01-11T07:06:48;95717.59;;;-12.06;100.00
22047;BME280;11187;49.412;20.956;2024-01-11T07:09:21;95716.00;;;-12.06;100.00
22047;BME280;11187;49.412;20.956;2024-01-11T07:12:08;95710.69;;;-12.00;100.00
22047;BME280;11187;49.412;20.956;2024-01-11T07:14:44;95699.66;;;-11.93;100.00
22047;BME280;11187;49.412;20.956;2024-01-11T07:17:31;95693.03;;;-11.83;100.00
22047;BME280;11187;49.412;20.956;2024-01-11T07:20:05;95694.97;;;-11.79;100.00
22047;BME280;11187;49.412;20.956;2024-01-11T07:22:53;95694.97;;;-11.79;100.00
22047;BME280;11187;49.412;20.956;2024-01-11T07:25:27;95691.56;;;-11.81;99.98
22047;BME280;11187;49.412;20.956;2024-01-11T07:28:21;95672.31;;;-11.85;100.00
22047;BME280;11187;49.412;20.956;2024-01-11T07:30:58;95672.88;;;-11.77;100.00
22047;BME280;11187;49.412;20.956;2024-01-11T07:33:45;95672.56;;;-11.70;100.00
22047;BME280;11187;49.412;20.956;2024-01-11T07:36:18;95664.97;;;-11.61;100.00
22047;BME280;11187;49.412;20.956;2024-01-11T07:39:05;95667.06;;;-11.56;100.00
22047;BME280;11187;49.412;20.956;2024-01-11T07:41:59;95650.50;;;-11.57;100.00
22047;BME280;11187;49.412;20.956;2024-01-11T07:44:53;95635.03;;;-11.54;100.00
22047;BME280;11187;49.412;20.956;2024-01-11T07:47:26;95636.59;;;-11.44;100.00
22047;BME280;11187;49.412;20.956;2024-01-11T07:50:20;95630.56;;;-11.36;100.00
22047;BME280;11187;49.412;20.956;2024-01-11T07:53:14;95630.16;;;-11.30;100.00
22047;BME280;11187;49.412;20.956;2024-01-11T07:55:54;95631.69;;;-11.21;100.00
22047;BME280;11187;49.412;20.956;2024-01-11T07:58:34;95620.50;;;-11.16;100.00
22047;BME280;11187;49.412;20.956;2024-01-11T08:01:18;95618.16;;;-11.14;100.00
22047;BME280;11187;49.412;20.956;2024-01-11T08:03:58;95617.72;;;-11.08;100.00
22047;BME280;11187;49.412;20.956;2024-01-11T08:06:38;95615.34;;;-11.07;100.00
22047;BME280;11187;49.412;20.956;2024-01-11T08:09:26;95606.00;;;-10.99;100.00
22047;BME280;11187;49.412;20.956;2024-01-11T08:11:59;95607.72;;;-10.86;100.00
22047;BME280;11187;49.412;20.956;2024-01-11T08:14:46;95604.41;;;-10.75;100.00
22047;BME280;11187;49.412;20.956;2024-01-11T08:17:20;95597.50;;;-10.67;100.00
22047;BME280;11187;49.412;20.956;2024-01-11T08:20:10;95598.44;;;-10.54;100.00
22047;BME280;11187;49.412;20.956;2024-01-11T08:22:44;95600.81;;;-10.43;100.00
22047;BME280;11187;49.412;20.956;2024-01-11T08:25:31;95595.63;;;-10.35;100.00
22047;BME280;11187;49.412;20.956;2024-01-11T08:28:04;95598.69;;;-10.25;100.00
22047;BME280;11187;49.412;20.956;2024-01-11T08:30:51;95590.81;;;-10.20;100.00
22047;BME280;11187;49.412;20.956;2024-01-11T08:33:31;95598.13;;;-10.10;100.00
22047;BME280;11187;49.412;20.956;2024-01-11T08:36:11;95602.72;;;-10.02;100.00
22047;BME280;11187;49.412;20.956;2024-01-11T08:38:51;95606.47;;;-9.96;100.00
22047;BME280;11187;49.412;20.956;2024-01-11T08:41:45;95607.19;;;-9.85;100.00
22047;BME280;11187;49.412;20.956;2024-01-11T08:44:18;95618.44;;;-9.77;100.00
22047;BME280;11187;49.412;20.956;2024-01-11T08:47:05;95623.69;;;-9.60;100.00
22047;BME280;11187;49.412;20.956;2024-01-11T08:49:39;95623.06;;;-9.44;100.00
22047;BME280;11187;49.412;20.956;2024-01-11T08:52:33;95612.03;;;-9.23;100.00
22047;BME280;11187;49.412;20.956;2024-01-11T08:55:27;95618.28;;;-9.03;100.00
22047;BME280;11187;49.412;20.956;2024-01-11T08:58:00;95613.63;;;-8.85;100.00
22047;BME280;11187;49.412;20.956;2024-01-11T09:00:54;95619.63;;;-8.68;100.00
22047;BME280;11187;49.412;20.956;2024-01-11T09:03:48;95614.94;;;-8.50;100.00
22047;BME280;11187;49.412;20.956;2024-01-11T09:06:42;95606.88;;;-8.33;100.00
22047;BME280;11187;49.412;20.956;2024-01-11T09:09:36;95594.78;;;-8.13;100.00
22047;BME280;11187;49.412;20.956;2024-01-11T09:12:21;95604.69;;;-8.00;100.00
22047;BME280;11187;49.412;20.956;2024-01-11T09:15:15;95596.63;;;-7.83;100.00
22047;BME280;11187;49.412;20.956;2024-01-11T09:18:09;95595.97;;;-7.65;100.00
22047;BME280;11187;49.412;20.956;2024-01-11T09:20:49;95587.59;;;-7.52;100.00
22047;BME280;11187;49.412;20.956;2024-01-11T09:23:29;95586.41;;;-7.44;100.00
22047;BME280;11187;49.412;20.956;2024-01-11T09:26:09;95591.13;;;-7.34;100.00
22047;BME280;11187;49.412;20.956;2024-01-11T09:28:43;95585.72;;;-7.27;100.00
22047;BME280;11187;49.412;20.956;2024-01-11T09:31:30;95581.47;;;-7.15;100.00
22047;BME280;11187;49.412;20.956;2024-01-11T09:34:03;95578.00;;;-7.02;100.00
22047;BME280;11187;49.412;20.956;2024-01-11T09:36:50;95563.88;;;-6.88;100.00
22047;BME280;11187;49.412;20.956;2024-01-11T09:39:37;95564.50;;;-6.76;100.00
22047;BME280;11187;49.412;20.956;2024-01-11T09:42:31;95563.56;;;-6.63;100.00
22047;BME280;11187;49.412;20.956;2024-01-11T09:45:25;95563.72;;;-6.60;100.00
22047;BME280;11187;49.412;20.956;2024-01-11T09:47:58;95555.69;;;-6.54;100.00
22047;BME280;11187;49.412;20.956;2024-01-11T09:50:45;95551.19;;;-6.45;100.00
22047;BME280;11187;49.412;20.956;2024-01-11T09:53:19;95544.06;;;-6.39;100.00
22047;BME280;11187;49.412;20.956;2024-01-11T09:56:14;95544.63;;;-6.28;100.00
22047;BME280;11187;49.412;20.956;2024-01-11T09:58:50;95538.56;;;-6.17;100.00
22047;BME280;11187;49.412;20.956;2024-01-11T10:01:44;95518.25;;;-6.08;100.00
22047;BME280;11187;49.412;20.956;2024-01-11T10:04:42;95521.84;;;-6.03;100.00
22047;BME280;11187;49.412;20.956;2024-01-11T10:07:36;95529.47;;;-6.00;100.00
22047;BME280;11187;49.412;20.956;2024-01-11T10:10:09;95530.59;;;-5.93;100.00
22047;BME280;11187;49.412;20.956;2024-01-11T10:12:56;95529.13;;;-5.90;100.00
22047;BME280;11187;49.412;20.956;2024-01-11T10:15:29;95523.66;;;-5.82;100.00
22047;BME280;11187;49.412;20.956;2024-01-11T10:18:16;95525.59;;;-5.77;100.00
22047;BME280;11187;49.412;20.956;2024-01-11T10:20:50;95528.41;;;-5.71;100.00
22047;BME280;11187;49.412;20.956;2024-01-11T10:23:44;95530.28;;;-5.67;100.00
22047;BME280;11187;49.412;20.956;2024-01-11T10:26:43;95526.53;;;-5.58;100.00
22047;BME280;11187;49.412;20.956;2024-01-11T10:29:33;95522.63;;;-5.53;100.00
22047;BME280;11187;49.412;20.956;2024-01-11T10:32:20;95513.59;;;-5.51;100.00
22047;BME280;11187;49.412;20.956;2024-01-11T10:34:53;95509.56;;;-5.48;100.00
22047;BME280;11187;49.412;20.956;2024-01-11T10:37:40;95493.06;;;-5.46;100.00
22047;BME280;11187;49.412;20.956;2024-01-11T10:40:28;95497.31;;;-5.43;100.00
22047;BME280;11187;49.412;20.956;2024-01-11T10:43:22;95491.09;;;-5.35;100.00
22047;BME280;11187;49.412;20.956;2024-01-11T10:45:59;95482.16;;;-5.30;100.00
22047;BME280;11187;49.412;20.956;2024-01-11T10:48:49;95477.69;;;-5.19;100.00
22047;BME280;11187;49.412;20.956;2024-01-11T10:51:28;95481.34;;;-5.12;100.00
22047;BME280;11187;49.412;20.956;2024-01-11T10:54:27;95475.06;;;-5.04;100.00
22047;BME280;11187;49.412;20.956;2024-01-11T10:57:01;95475.06;;;-5.04;100.00
22047;BME280;11187;49.412;20.956;2024-01-11T10:59:54;95457.72;;;-5.01;100.00
22047;BME280;11187;49.412;20.956;2024-01-11T11:02:51;95467.78;;;-4.99;100.00
22047;BME280;11187;49.412;20.956;2024-01-11T11:05:25;95456.41;;;-4.93;100.00
22047;BME280;11187;49.412;20.956;2024-01-11T11:08:12;95460.06;;;-4.86;100.00
22047;BME280;11187;49.412;20.956;2024-01-11T11:10:47;95446.16;;;-4.81;100.00
22047;BME280;11187;49.412;20.956;2024-01-11T11:13:41;95433.88;;;-4.76;100.00
22047;BME280;11187;49.412;20.956;2024-01-11T11:16:36;95433.94;;;-4.75;100.00
22047;BME280;11187;49.412;20.956;2024-01-11T11:19:30;95430.75;;;-4.72;100.00
22047;BME280;11187;49.412;20.956;2024-01-11T11:22:04;95429.34;;;-4.66;100.00
22047;BME280;11187;49.412;20.956;2024-01-11T11:25:03;95422.03;;;-4.61;100.00
22047;BME280;11187;49.412;20.956;2024-01-11T11:27:39;95421.56;;;-4.54;100.00
22047;BME280;11187;49.412;20.956;2024-01-11T11:30:25;95419.38;;;-4.46;100.00
22047;BME280;11187;49.412;20.956;2024-01-11T11:33:10;95410.59;;;-4.38;100.00
22047;BME280;11187;49.412;20.956;2024-01-11T11:35:58;95403.59;;;-4.26;100.00
22047;BME280;11187;49.412;20.956;2024-01-11T11:38:31;95399.63;;;-4.21;100.00
22047;BME280;11187;49.412;20.956;2024-01-11T11:41:18;95386.38;;;-4.20;100.00
22047;BME280;11187;49.412;20.956;2024-01-11T11:43:53;95373.31;;;-4.12;100.00
22047;BME280;11187;49.412;20.956;2024-01-11T11:46:39;95361.78;;;-4.09;100.00
22047;BME280;11187;49.412;20.956;2024-01-11T11:49:12;95366.28;;;-4.02;100.00
22047;BME280;11187;49.412;20.956;2024-01-11T11:51:59;95348.22;;;-3.94;100.00
22047;BME280;11187;49.412;20.956;2024-01-11T11:54:32;95352.78;;;-3.84;100.00
22047;BME280;11187;49.412;20.956;2024-01-11T11:57:20;95355.47;;;-3.80;100.00
22047;BME280;11187;49.412;20.956;2024-01-11T12:00:02;95343.28;;;-3.72;100.00
22047;BME280;11187;49.412;20.956;2024-01-11T12:02:52;95353.47;;;-3.67;100.00
22047;BME280;11187;49.412;20.956;2024-01-11T12:05:28;95352.19;;;-3.58;100.00
22047;BME280;11187;49.412;20.956;2024-01-11T12:08:15;95343.34;;;-3.49;99.70
22047;BME280;11187;49.412;20.956;2024-01-11T12:10:56;95342.78;;;-3.42;99.44
22047;BME280;11187;49.412;20.956;2024-01-11T12:13:36;95337.28;;;-3.33;99.67
22047;BME280;11187;49.412;20.956;2024-01-11T12:16:16;95334.13;;;-3.28;99.45
22047;BME280;11187;49.412;20.956;2024-01-11T12:18:56;95324.34;;;-3.22;99.20
22047;BME280;11187;49.412;20.956;2024-01-11T12:21:36;95311.25;;;-3.15;99.28
22047;BME280;11187;49.412;20.956;2024-01-11T12:24:18;95315.47;;;-3.13;98.72
22047;BME280;11187;49.412;20.956;2024-01-11T12:26:59;95309.09;;;-3.05;98.98
22047;BME280;11187;49.412;20.956;2024-01-11T12:29:39;95300.84;;;-3.03;98.61
22047;BME280;11187;49.412;20.956;2024-01-11T12:32:30;95306.84;;;-2.98;98.61
22047;BME280;11187;49.412;20.956;2024-01-11T12:35:10;95300.84;;;-3.03;96.30
22047;BME280;11187;49.412;20.956;2024-01-11T12:38:00;95287.56;;;-3.00;97.90
22047;BME280;11187;49.412;20.956;2024-01-11T12:40:48;95289.28;;;-2.99;98.15
22047;BME280;11187;49.412;20.956;2024-01-11T12:43:28;95277.88;;;-2.91;97.45
22047;BME280;11187;49.412;20.956;2024-01-11T12:46:15;95261.47;;;-2.83;97.65
22047;BME280;11187;49.412;20.956;2024-01-11T12:48:55;95271.41;;;-2.84;97.17
22047;BME280;11187;49.412;20.956;2024-01-11T12:51:42;95274.97;;;-2.79;97.98
22047;BME280;11187;49.412;20.956;2024-01-11T12:54:15;95267.53;;;-2.76;98.10
22047;BME280;11187;49.412;20.956;2024-01-11T12:57:11;95268.47;;;-2.73;98.11
22047;BME280;11187;49.412;20.956;2024-01-11T12:59:46;95271.13;;;-2.69;98.49
22047;BME280;11187;49.412;20.956;2024-01-11T13:02:40;95258.59;;;-2.69;97.45
22047;BME280;11187;49.412;20.956;2024-01-11T13:05:37;95274.56;;;-2.66;97.74
22047;BME280;11187;49.412;20.956;2024-01-11T13:08:31;95263.16;;;-2.58;97.55
22047;BME280;11187;49.412;20.956;2024-01-11T13:11:28;95264.84;;;-2.57;97.18
22047;BME280;11187;49.412;20.956;2024-01-11T13:14:22;95259.16;;;-2.53;97.90
22047;BME280;11187;49.412;20.956;2024-01-11T13:16:55;95255.03;;;-2.50;97.39
22047;BME280;11187;49.412;20.956;2024-01-11T13:19:42;95253.44;;;-2.48;97.40
22047;BME280;11187;49.412;20.956;2024-01-11T13:22:16;95246.78;;;-2.48;97.39
22047;BME280;11187;49.412;20.956;2024-01-11T13:25:02;95237.72;;;-2.44;98.00
22047;BME280;11187;49.412;20.956;2024-01-11T13:27:35;95231.25;;;-2.38;98.12
22047;BME280;11187;49.412;20.956;2024-01-11T13:30:22;95224.63;;;-2.36;97.88
22047;BME280;11187;49.412;20.956;2024-01-11T13:32:56;95234.66;;;-2.36;98.07
22047;BME280;11187;49.412;20.956;2024-01-11T13:35:43;95226.28;;;-2.36;97.87
22047;BME280;11187;49.412;20.956;2024-01-11T13:38:17;95223.19;;;-2.27;97.62
22047;BME280;11187;49.412;20.956;2024-01-11T13:41:11;95219.16;;;-2.24;97.54
22047;BME280;11187;49.412;20.956;2024-01-11T13:43:54;95220.06;;;-2.22;97.42
22047;BME280;11187;49.412;20.956;2024-01-11T13:46:34;95207.72;;;-2.16;97.32
22047;BME280;11187;49.412;20.956;2024-01-11T13:49:14;95206.97;;;-2.13;97.30
22047;BME280;11187;49.412;20.956;2024-01-11T13:51:54;95205.38;;;-2.10;97.52
22047;BME280;11187;49.412;20.956;2024-01-11T13:54:34;95208.09;;;-2.03;97.60
22047;BME280;11187;49.412;20.956;2024-01-11T13:57:14;95192.94;;;-2.06;96.58
22047;BME280;11187;49.412;20.956;2024-01-11T13:59:54;95187.94;;;-2.06;96.02